createdAt,value
2019-03-20T00:00:15.750Z,5.73
2019-03-20T00:02:44.136Z,5.63
2019-03-20T00:05:12.523Z,6.00
2019-03-20T00:07:40.906Z,6.00
2019-03-20T00:10:11.408Z,5.50
2019-03-20T00:12:39.787Z,5.30
2019-03-20T00:15:13.797Z,5.20
2019-03-20T00:17:42.169Z,5.37
2019-03-20T00:20:12.005Z,5.27
2019-03-20T00:22:42.962Z,5.33
2019-03-20T00:25:11.207Z,5.50
2019-03-20T00:27:39.582Z,5.40
2019-03-20T00:30:18.454Z,4.90
2019-03-20T00:32:47.177Z,5.30
2019-03-20T00:35:15.650Z,5.03
2019-03-20T00:37:44.037Z,5.70
2019-03-20T00:40:16.317Z,5.87
2019-03-20T00:42:44.724Z,6.07
2019-03-20T00:45:18.075Z,5.67
2019-03-20T00:47:46.455Z,5.40
2019-03-20T00:50:18.952Z,5.70
2019-03-20T00:52:47.400Z,5.30
2019-03-20T00:55:19.721Z,5.40
2019-03-20T00:57:48.377Z,5.17
2019-03-20T01:00:21.494Z,5.83
2019-03-20T01:02:50.819Z,6.30
2019-03-20T01:05:20.233Z,6.53
2019-03-20T01:07:48.690Z,6.40
2019-03-20T01:10:24.506Z,5.57
2019-03-20T01:12:53.060Z,5.77
2019-03-20T01:15:21.508Z,5.70
2019-03-20T01:17:50.037Z,5.10
2019-03-20T01:20:20.425Z,5.27
2019-03-20T01:22:49.047Z,4.63
2019-03-20T01:25:18.167Z,4.63
2019-03-20T01:27:46.726Z,4.87
2019-03-20T01:30:32.733Z,4.30
2019-03-20T01:33:02.365Z,4.40
2019-03-20T01:35:30.817Z,4.57
2019-03-20T01:37:59.285Z,4.47
2019-03-20T01:40:27.665Z,4.57
2019-03-20T01:42:56.049Z,4.37
2019-03-20T01:45:24.772Z,4.97
2019-03-20T01:47:53.211Z,4.97
2019-03-20T01:50:21.602Z,4.70
2019-03-20T01:52:49.985Z,4.63
2019-03-20T01:55:18.378Z,4.97
2019-03-20T01:57:46.759Z,4.80
2019-03-20T02:00:15.380Z,4.30
2019-03-20T02:02:43.838Z,4.93
2019-03-20T02:05:12.294Z,4.83
2019-03-20T02:07:40.673Z,4.70
2019-03-20T02:10:11.656Z,4.40
2019-03-20T02:12:40.039Z,4.43
2019-03-20T02:15:11.467Z,5.17
2019-03-20T02:17:39.862Z,5.10
2019-03-20T02:20:11.188Z,4.50
2019-03-20T02:22:39.640Z,4.83
2019-03-20T02:25:09.663Z,4.90
2019-03-20T02:27:38.045Z,4.47
2019-03-20T02:30:09.971Z,5.40
2019-03-20T02:32:38.368Z,5.07
2019-03-20T02:35:06.885Z,5.17
2019-03-20T02:37:35.267Z,4.77
2019-03-20T02:40:05.722Z,5.00
2019-03-20T02:42:34.082Z,4.60
2019-03-20T02:45:02.479Z,5.13
2019-03-20T02:47:30.865Z,5.37
2019-03-20T02:49:59.242Z,4.93
2019-03-20T02:52:27.634Z,5.07
2019-03-20T02:54:56.023Z,5.07
2019-03-20T02:57:24.466Z,4.63
2019-03-20T02:59:52.863Z,4.90
2019-03-20T03:02:21.251Z,4.57
2019-03-20T03:04:49.691Z,4.77
2019-03-20T03:07:18.025Z,4.97
2019-03-20T03:09:46.404Z,4.50
2019-03-20T03:12:14.815Z,4.97
2019-03-20T03:14:43.200Z,4.43
2019-03-20T03:17:11.595Z,4.37
2019-03-20T03:19:39.984Z,4.67
2019-03-20T03:22:08.370Z,4.37
2019-03-20T03:24:36.754Z,4.70
2019-03-20T03:27:05.156Z,4.87
2019-03-20T03:29:33.557Z,4.63
2019-03-20T03:32:01.952Z,4.80
2019-03-20T03:34:30.335Z,4.70
2019-03-20T03:36:58.731Z,4.90
2019-03-20T03:39:27.103Z,4.53
2019-03-20T03:41:55.566Z,4.30
2019-03-20T03:44:23.943Z,4.43
2019-03-20T03:46:52.365Z,4.97
2019-03-20T03:49:20.712Z,4.00
2019-03-20T03:51:49.087Z,4.23
2019-03-20T03:54:17.468Z,4.70
2019-03-20T03:56:46.122Z,4.60
2019-03-20T03:59:14.501Z,4.43
2019-03-20T04:01:42.882Z,4.10
2019-03-20T04:04:11.270Z,4.80
2019-03-20T04:06:39.823Z,4.57
2019-03-20T04:09:08.208Z,4.77
2019-03-20T04:11:36.594Z,5.17
2019-03-20T04:14:05.063Z,4.40
2019-03-20T04:16:33.454Z,4.37
2019-03-20T04:19:01.848Z,4.13
2019-03-20T04:21:30.221Z,4.57
2019-03-20T04:23:58.609Z,4.23
2019-03-20T04:26:26.994Z,4.60
2019-03-20T04:28:55.380Z,4.53
2019-03-20T04:31:23.762Z,4.50
2019-03-20T04:33:52.155Z,4.67
2019-03-20T04:36:20.542Z,4.50
2019-03-20T04:38:48.929Z,4.13
2019-03-20T04:41:17.330Z,4.17
2019-03-20T04:43:45.723Z,4.03
2019-03-20T04:46:14.106Z,4.77
2019-03-20T04:48:42.494Z,4.40
2019-03-20T04:51:10.887Z,4.17
2019-03-20T04:53:39.274Z,4.70
2019-03-20T04:56:07.654Z,4.17
2019-03-20T04:58:36.038Z,4.20
2019-03-20T05:01:04.485Z,4.60
2019-03-20T05:03:32.905Z,4.70
2019-03-20T05:06:01.292Z,3.90
2019-03-20T05:08:29.671Z,3.87
2019-03-20T05:10:58.055Z,4.07
2019-03-20T05:13:26.451Z,4.53
2019-03-20T05:15:54.835Z,4.43
2019-03-20T05:18:23.319Z,4.20
2019-03-20T05:20:51.648Z,4.10
2019-03-20T05:23:20.046Z,4.50
2019-03-20T05:25:48.427Z,4.63
2019-03-20T05:28:16.820Z,4.77
2019-03-20T05:30:45.196Z,4.70
2019-03-20T05:33:13.595Z,4.17
2019-03-20T05:35:41.988Z,3.90
2019-03-20T05:38:10.405Z,4.50
2019-03-20T05:40:38.784Z,4.00
2019-03-20T05:43:07.163Z,4.13
2019-03-20T05:45:35.545Z,4.07
2019-03-20T05:48:03.928Z,4.17
2019-03-20T05:50:32.314Z,4.03
2019-03-20T05:53:00.697Z,4.40
2019-03-20T05:55:29.082Z,4.53
2019-03-20T05:57:57.469Z,4.40
2019-03-20T06:00:27.503Z,4.07
2019-03-20T06:02:55.879Z,4.00
2019-03-20T06:05:24.285Z,4.00
2019-03-20T06:07:52.655Z,4.37
2019-03-20T06:10:21.055Z,4.58
2019-03-20T06:12:49.445Z,4.20
2019-03-20T06:15:17.839Z,4.10
2019-03-20T06:17:47.015Z,4.07
2019-03-20T06:20:15.563Z,3.93
2019-03-20T06:22:43.945Z,4.50
2019-03-20T06:25:14.441Z,4.40
2019-03-20T06:27:42.819Z,4.10
2019-03-20T06:30:18.656Z,3.83
2019-03-20T06:32:47.038Z,3.87
2019-03-20T06:35:15.559Z,4.30
2019-03-20T06:37:43.940Z,4.10
2019-03-20T06:40:14.066Z,4.70
2019-03-20T06:42:42.449Z,4.50
2019-03-20T06:45:15.850Z,4.57
2019-03-20T06:47:44.238Z,4.10
2019-03-20T06:50:16.432Z,4.20
2019-03-20T06:52:44.759Z,4.50
2019-03-20T06:55:13.290Z,4.70
2019-03-20T06:57:41.746Z,4.97
2019-03-20T07:00:44.963Z,5.20
2019-03-20T07:03:31.006Z,4.63
2019-03-20T07:06:31.186Z,4.40
2019-03-20T07:09:08.566Z,4.23
2019-03-20T07:11:39.665Z,4.63
2019-03-20T07:14:08.244Z,5.00
2019-03-20T07:16:36.467Z,4.60
2019-03-20T07:19:05.188Z,4.50
2019-03-20T07:21:33.574Z,4.90
2019-03-20T07:24:01.963Z,4.20
2019-03-20T07:26:30.346Z,4.30
2019-03-20T07:28:58.732Z,4.70
2019-03-20T07:31:27.116Z,4.50
2019-03-20T07:33:55.503Z,4.83
2019-03-20T07:36:24.261Z,4.80
2019-03-20T07:38:52.652Z,4.70
2019-03-20T07:41:21.035Z,5.00
2019-03-20T07:43:49.424Z,4.80
2019-03-20T07:46:17.822Z,4.60
2019-03-20T07:48:46.225Z,5.33
2019-03-20T07:51:14.613Z,5.30
2019-03-20T07:53:43.010Z,4.40
2019-03-20T07:56:11.464Z,4.60
2019-03-20T07:58:39.893Z,4.73
2019-03-20T08:01:08.232Z,5.00
2019-03-20T08:03:36.610Z,4.97
2019-03-20T08:06:05.231Z,4.50
2019-03-20T08:08:33.616Z,4.33
2019-03-20T08:11:01.997Z,3.97
2019-03-20T08:13:30.379Z,4.30
2019-03-20T08:15:58.773Z,4.60
2019-03-20T08:18:27.153Z,3.90
2019-03-20T08:20:55.530Z,3.60
2019-03-20T08:23:23.911Z,4.17
2019-03-20T08:25:52.289Z,3.37
2019-03-20T08:28:20.748Z,3.67
2019-03-20T08:30:49.204Z,3.33
2019-03-20T08:33:17.594Z,2.83
2019-03-20T08:35:46.394Z,2.83
2019-03-20T08:38:18.735Z,2.53
2019-03-20T08:40:44.916Z,1.90
2019-03-20T08:43:13.345Z,1.80
2019-03-20T08:45:41.759Z,1.97
2019-03-20T08:50:56.262Z,1.70
2019-03-20T08:53:24.681Z,1.50
2019-03-20T08:55:53.085Z,2.07
2019-03-20T08:58:21.607Z,2.10
2019-03-20T09:00:50.028Z,2.30
2019-03-20T09:03:18.414Z,2.10
2019-03-20T09:05:46.798Z,2.30
2019-03-20T09:08:15.173Z,2.40
2019-03-20T09:10:43.555Z,2.10
2019-03-20T09:13:11.997Z,2.20
2019-03-20T09:15:40.423Z,1.67
2019-03-20T09:18:08.834Z,1.83
2019-03-20T09:20:37.209Z,1.40
2019-03-20T09:23:05.589Z,1.43
2019-03-20T09:25:33.970Z,1.90
2019-03-20T09:28:02.352Z,1.83
2019-03-20T09:30:31.145Z,1.60
2019-03-20T09:32:59.518Z,1.30
2019-03-20T09:35:27.901Z,1.43
2019-03-20T09:37:56.295Z,1.17
2019-03-20T09:40:28.411Z,1.40
2019-03-20T09:42:56.865Z,1.57
2019-03-20T09:45:25.549Z,1.30
2019-03-20T09:47:53.940Z,1.20
2019-03-20T09:50:26.299Z,1.57
2019-03-20T09:52:54.681Z,1.60
2019-03-20T09:55:23.054Z,1.50
2019-03-20T09:57:51.438Z,1.60
2019-03-20T10:00:22.202Z,1.40
2019-03-20T10:02:50.588Z,1.47
2019-03-20T10:05:19.103Z,1.70
2019-03-20T10:07:47.585Z,1.40
2019-03-20T10:10:20.706Z,1.67
2019-03-20T10:12:49.298Z,11.50
2019-03-20T10:15:19.358Z,1.70
2019-03-20T10:17:47.887Z,1.33
2019-03-20T10:20:18.782Z,1.53
2019-03-20T10:22:47.254Z,1.67
2019-03-20T10:25:16.774Z,2.20
2019-03-20T10:27:45.319Z,1.87
2019-03-20T10:30:26.989Z,1.80
2019-03-20T10:32:55.466Z,1.70
2019-03-20T10:35:23.835Z,1.40
2019-03-20T10:37:52.248Z,1.90
2019-03-20T10:40:27.754Z,1.53
2019-03-20T10:42:56.162Z,1.60
2019-03-20T10:45:24.743Z,1.70
2019-03-20T10:47:53.546Z,1.67
2019-03-20T10:50:23.822Z,1.90
2019-03-20T10:52:52.276Z,1.77
2019-03-20T10:55:20.768Z,1.67
2019-03-20T10:57:49.265Z,1.83
2019-03-20T11:00:19.980Z,1.53
2019-03-20T11:02:48.396Z,1.67
2019-03-20T11:05:18.054Z,1.60
2019-03-20T11:07:46.472Z,1.60
2019-03-20T11:10:20.133Z,1.93
2019-03-20T11:12:48.530Z,1.93
2019-03-20T11:15:19.064Z,1.70
2019-03-20T11:17:47.584Z,1.70
2019-03-20T11:20:19.910Z,1.57
2019-03-20T11:22:48.765Z,1.90
2019-03-20T11:25:25.212Z,1.80
2019-03-20T11:27:53.654Z,2.20
2019-03-20T11:30:28.146Z,2.03
2019-03-20T11:32:56.626Z,1.90
2019-03-20T11:35:25.163Z,1.60
2019-03-20T11:37:53.727Z,1.60
2019-03-20T11:40:33.609Z,1.30
2019-03-20T11:43:01.998Z,1.50
2019-03-20T11:45:30.418Z,1.60
2019-03-20T11:47:58.836Z,1.77
2019-03-20T11:50:37.924Z,1.43
2019-03-20T11:53:07.588Z,1.83
2019-03-20T11:55:36.357Z,1.50
2019-03-20T11:58:05.907Z,1.70
2019-03-20T12:00:34.400Z,1.90
2019-03-20T12:03:02.824Z,1.70
2019-03-20T12:05:31.247Z,1.53
2019-03-20T12:07:59.706Z,1.80
2019-03-20T12:10:34.517Z,1.90
2019-03-20T12:13:02.940Z,1.70
2019-03-20T12:15:31.439Z,1.87
2019-03-20T12:17:59.860Z,2.23
2019-03-20T12:20:28.352Z,1.97
2019-03-20T12:22:56.767Z,2.00
2019-03-20T12:25:29.654Z,1.90
2019-03-20T12:27:58.140Z,1.60
2019-03-20T12:30:33.685Z,1.63
2019-03-20T12:33:02.103Z,1.73
2019-03-20T12:35:33.576Z,1.83
2019-03-20T12:38:13.309Z,2.20
2019-03-20T12:40:32.146Z,2.27
2019-03-20T12:43:00.567Z,1.93
2019-03-20T12:45:41.205Z,1.77
2019-03-20T12:48:15.633Z,2.00
2019-03-20T12:50:44.116Z,2.10
2019-03-20T12:53:15.779Z,1.93
2019-03-20T12:55:44.197Z,1.97
2019-03-20T12:58:12.610Z,1.60
2019-03-20T13:00:41.029Z,1.80
2019-03-20T13:03:09.517Z,2.20
2019-03-20T13:05:37.939Z,1.80
2019-03-20T13:08:06.557Z,2.50
2019-03-20T13:10:35.058Z,2.00
2019-03-20T13:13:05.114Z,2.00
2019-03-20T13:15:33.707Z,2.00
2019-03-20T13:18:02.188Z,1.60
2019-03-20T13:20:30.605Z,1.80
2019-03-20T13:23:02.068Z,1.90
2019-03-20T13:25:30.559Z,2.20
2019-03-20T13:27:59.027Z,1.90
2019-03-20T13:30:30.421Z,1.83
2019-03-20T13:32:58.924Z,2.00
2019-03-20T13:35:27.349Z,1.87
2019-03-20T13:37:55.804Z,2.10
2019-03-20T13:40:24.228Z,2.00
2019-03-20T13:42:52.647Z,2.03
2019-03-20T13:45:22.922Z,2.00
2019-03-20T13:47:51.348Z,1.90
2019-03-20T13:50:19.848Z,2.10
2019-03-20T13:52:48.280Z,2.33
2019-03-20T13:55:17.448Z,2.10
2019-03-20T13:57:45.866Z,1.80
2019-03-20T14:00:16.318Z,1.77
2019-03-20T14:02:44.745Z,2.00
2019-03-20T14:05:14.007Z,2.43
2019-03-20T14:07:42.509Z,1.83
2019-03-20T14:10:24.510Z,2.07
2019-03-20T14:12:46.998Z,2.30
2019-03-20T14:15:19.240Z,1.90
2019-03-20T14:17:47.728Z,1.90
2019-03-20T14:20:26.650Z,2.13
2019-03-20T14:22:55.084Z,2.00
2019-03-20T14:25:23.381Z,2.00
2019-03-20T14:27:55.442Z,2.10
2019-03-20T14:30:34.175Z,1.73
2019-03-20T14:33:02.593Z,1.90
2019-03-20T14:35:31.017Z,2.07
2019-03-20T14:37:59.477Z,1.60
2019-03-20T14:40:35.485Z,1.90
2019-03-20T14:43:00.628Z,1.80
2019-03-20T14:45:29.153Z,1.73
2019-03-20T14:47:57.570Z,1.90
2019-03-20T14:50:26.965Z,1.90
2019-03-20T14:52:55.388Z,2.00
2019-03-20T14:55:23.843Z,1.90
2019-03-20T14:57:52.386Z,2.00
2019-03-20T15:00:28.236Z,2.03
2019-03-20T15:02:56.722Z,1.80
2019-03-20T15:05:25.147Z,1.80
2019-03-20T15:07:53.836Z,2.23
2019-03-20T15:10:31.476Z,1.70
2019-03-20T15:12:59.896Z,1.90
2019-03-20T15:15:40.193Z,1.60
2019-03-20T15:18:08.705Z,1.73
2019-03-20T15:20:37.189Z,1.93
2019-03-20T15:23:05.749Z,1.77
2019-03-20T15:25:34.169Z,1.87
2019-03-20T15:28:02.588Z,1.80
2019-03-20T15:30:31.116Z,1.90
2019-03-20T15:32:59.530Z,2.00
2019-03-20T15:35:27.967Z,2.00
2019-03-20T15:37:56.392Z,1.90
2019-03-20T15:40:26.049Z,1.80
2019-03-20T15:42:54.471Z,1.70
2019-03-20T15:45:22.914Z,1.83
2019-03-20T15:47:51.411Z,1.83
2019-03-20T15:50:27.347Z,1.80
2019-03-20T15:52:55.834Z,1.60
2019-03-20T15:55:41.024Z,1.87
2019-03-20T15:58:09.510Z,1.90
2019-03-20T16:00:37.932Z,1.40
2019-03-20T16:03:09.462Z,1.87
2019-03-20T16:05:37.979Z,1.50
2019-03-20T16:08:08.586Z,1.60
2019-03-20T16:10:37.125Z,1.70
2019-03-20T16:13:05.789Z,1.67
2019-03-20T16:15:34.289Z,1.63
2019-03-20T16:18:02.708Z,1.80
2019-03-20T16:20:31.132Z,1.60
2019-03-20T16:22:59.563Z,1.50
2019-03-20T16:25:27.986Z,1.40
2019-03-20T16:27:56.482Z,1.50
2019-03-20T16:30:27.366Z,2.17
2019-03-20T16:32:56.585Z,1.70
2019-03-20T16:35:25.166Z,1.87
2019-03-20T16:37:53.602Z,1.43
2019-03-20T16:40:29.940Z,1.47
2019-03-20T16:42:58.365Z,1.50
2019-03-20T16:45:31.671Z,2.27
2019-03-20T16:48:00.256Z,2.00
2019-03-20T16:50:28.677Z,1.80
2019-03-20T16:52:57.175Z,1.30
2019-03-20T16:55:25.895Z,1.60
2019-03-20T16:57:54.310Z,1.77
2019-03-20T17:00:30.920Z,1.53
2019-03-20T17:02:59.589Z,2.10
2019-03-20T17:05:28.536Z,1.30
2019-03-20T17:07:57.125Z,1.73
2019-03-20T17:10:42.083Z,2.40
2019-03-20T17:13:10.514Z,2.23
2019-03-20T17:15:39.895Z,2.03
2019-03-20T17:18:09.060Z,1.93
2019-03-20T17:20:37.482Z,1.50
2019-03-20T17:23:07.750Z,1.50
2019-03-20T17:25:36.461Z,2.17
2019-03-20T17:28:05.508Z,1.93
2019-03-20T17:30:48.075Z,1.67
2019-03-20T17:33:16.492Z,1.60
2019-03-20T17:35:44.928Z,2.23
2019-03-20T17:38:13.347Z,2.23
2019-03-20T17:40:41.809Z,2.10
2019-03-20T17:43:10.201Z,1.77
2019-03-20T17:45:38.767Z,1.50
2019-03-20T17:48:07.265Z,1.80
2019-03-20T17:50:35.863Z,1.93
2019-03-20T17:53:05.721Z,4.20
2019-03-20T17:55:34.219Z,2.80
2019-03-20T17:58:02.704Z,2.80
2019-03-20T18:00:42.529Z,2.73
2019-03-20T18:03:11.110Z,2.10
2019-03-20T18:05:39.875Z,2.13
2019-03-20T18:08:09.031Z,2.30
2019-03-20T18:10:37.531Z,2.60
2019-03-20T18:13:07.393Z,2.70
2019-03-20T18:15:36.153Z,3.50
2019-03-20T18:18:05.432Z,4.20
2019-03-20T18:20:33.874Z,3.40
2019-03-20T18:23:02.438Z,4.07
2019-03-20T18:25:30.860Z,3.67
2019-03-20T18:27:59.282Z,4.20
2019-03-20T18:30:36.742Z,4.73
2019-03-20T18:33:05.298Z,5.60
2019-03-20T18:35:33.724Z,5.47
2019-03-20T18:38:02.147Z,4.00
2019-03-20T18:40:30.567Z,4.43
2019-03-20T18:42:58.995Z,3.70
2019-03-20T18:45:27.654Z,3.40
2019-03-20T18:47:56.138Z,3.53
2019-03-20T18:50:25.570Z,3.37
2019-03-20T18:52:54.112Z,3.23
2019-03-20T18:55:22.511Z,4.13
2019-03-20T18:57:51.060Z,4.80
2019-03-20T19:00:35.267Z,5.63
2019-03-20T19:03:12.146Z,5.80
2019-03-20T19:06:00.545Z,6.73
2019-03-20T19:08:28.998Z,5.90
2019-03-20T19:10:57.411Z,6.57
2019-03-20T19:13:25.798Z,6.87
2019-03-20T19:15:54.178Z,6.97
2019-03-20T19:18:22.565Z,6.10
2019-03-20T19:20:50.950Z,6.27
2019-03-20T19:23:19.329Z,5.63
2019-03-20T19:25:47.726Z,6.17
2019-03-20T19:28:16.122Z,6.50
2019-03-20T19:30:44.498Z,6.37
2019-03-20T19:33:12.881Z,6.10
2019-03-20T19:35:41.273Z,7.47
2019-03-20T19:38:09.753Z,7.40
2019-03-20T19:40:38.151Z,6.80
2019-03-20T19:43:06.529Z,6.80
2019-03-20T19:45:34.928Z,5.90
2019-03-20T19:48:03.317Z,6.60
2019-03-20T19:50:31.719Z,6.53
2019-03-20T19:53:00.105Z,6.63
2019-03-20T19:55:28.528Z,6.60
2019-03-20T19:57:56.921Z,6.83
2019-03-20T20:00:26.449Z,7.43
2019-03-20T20:02:54.830Z,8.30
2019-03-20T20:05:23.268Z,8.07
2019-03-20T20:07:51.729Z,7.27
2019-03-20T20:10:20.865Z,7.43
2019-03-20T20:12:49.422Z,5.70
2019-03-20T20:15:26.755Z,6.30
2019-03-20T20:17:55.135Z,5.80
2019-03-20T20:20:30.994Z,4.97
2019-03-20T20:22:59.376Z,5.33
2019-03-20T20:25:27.808Z,5.23
2019-03-20T20:27:56.277Z,5.50
2019-03-20T20:30:24.660Z,5.47
2019-03-20T20:32:53.034Z,4.93
2019-03-20T20:35:21.426Z,5.27
2019-03-20T20:37:50.560Z,5.30
2019-03-20T20:40:26.009Z,4.97
2019-03-20T20:42:54.393Z,5.33
2019-03-20T20:45:22.953Z,6.10
2019-03-20T20:47:51.426Z,7.43
2019-03-20T20:50:19.801Z,8.27
2019-03-20T20:52:48.278Z,7.90
2019-03-20T20:55:18.104Z,7.07
2019-03-20T20:57:46.533Z,6.60
2019-03-20T21:00:18.761Z,5.90
2019-03-20T21:02:47.150Z,6.30
2019-03-20T21:05:15.548Z,5.73
2019-03-20T21:07:43.934Z,5.97
2019-03-20T21:10:15.109Z,6.80
2019-03-20T21:12:55.133Z,6.97
2019-03-20T21:15:34.178Z,7.10
2019-03-20T21:18:17.442Z,7.23
2019-03-20T21:20:47.776Z,8.33
2019-03-20T21:23:37.931Z,7.43
2019-03-20T21:26:12.121Z,6.83
2019-03-20T21:29:11.840Z,7.07
2019-03-20T21:31:45.795Z,6.33
2019-03-20T21:34:22.959Z,6.30
2019-03-20T21:37:09.478Z,6.67
2019-03-20T21:39:37.879Z,6.30
2019-03-20T21:42:33.434Z,6.80
2019-03-20T21:45:16.989Z,6.23
2019-03-20T21:47:45.492Z,6.13
2019-03-20T21:50:36.636Z,6.37
2019-03-20T21:53:05.015Z,6.10
2019-03-20T21:56:09.560Z,6.43
2019-03-20T21:58:40.987Z,6.77
2019-03-20T22:01:15.509Z,7.17
2019-03-20T22:03:44.003Z,6.50
2019-03-20T22:06:42.438Z,6.97
2019-03-20T22:09:13.912Z,6.63
2019-03-20T22:12:14.029Z,7.37
2019-03-20T22:14:45.052Z,7.17
2019-03-20T22:17:32.711Z,6.60
2019-03-20T22:20:09.945Z,7.10
2019-03-20T22:22:44.126Z,7.50
2019-03-20T22:25:27.292Z,7.53
2019-03-20T22:28:24.318Z,8.13
2019-03-20T22:30:52.700Z,8.20
2019-03-20T22:33:57.225Z,8.03
2019-03-20T22:36:25.682Z,9.07
2019-03-20T22:39:02.883Z,7.90
2019-03-20T22:41:45.955Z,8.80
2019-03-20T22:44:14.339Z,8.10
2019-03-20T22:47:20.476Z,7.83
2019-03-20T22:50:00.719Z,7.23
2019-03-20T22:52:50.433Z,7.33
2019-03-20T22:55:40.865Z,6.73
2019-03-20T22:58:43.526Z,6.87
2019-03-20T23:01:20.523Z,6.43
2019-03-20T23:03:57.805Z,6.47
2019-03-20T23:06:26.354Z,7.73
2019-03-20T23:08:54.744Z,7.77
2019-03-20T23:11:23.131Z,8.60
2019-03-20T23:13:51.564Z,8.20
2019-03-20T23:16:20.986Z,8.00
2019-03-20T23:18:49.373Z,8.07
2019-03-20T23:21:17.783Z,7.33
2019-03-20T23:23:46.151Z,7.73
2019-03-20T23:26:14.543Z,7.03
2019-03-20T23:28:43.007Z,6.93
2019-03-20T23:31:11.385Z,6.17
2019-03-20T23:33:39.785Z,6.13
2019-03-20T23:36:08.177Z,6.00
2019-03-20T23:38:36.567Z,5.67
2019-03-20T23:41:05.188Z,5.90
2019-03-20T23:43:33.769Z,6.13
2019-03-20T23:46:02.493Z,6.23
2019-03-20T23:48:33.913Z,6.30
2019-03-20T23:51:08.377Z,6.13
2019-03-20T23:53:37.209Z,6.37
2019-03-20T23:56:05.665Z,6.40
2019-03-20T23:58:34.052Z,6.57
